createdAt,value
2019-01-16T00:01:40.175Z,46.51
2019-01-16T00:04:07.988Z,46.47
2019-01-16T00:06:38.551Z,46.31
2019-01-16T00:09:19.793Z,46.38
2019-01-16T00:12:05.528Z,46.32
2019-01-16T00:14:48.651Z,46.21
2019-01-16T00:17:25.539Z,45.85
2019-01-16T00:20:05.414Z,46.06
2019-01-16T00:22:42.340Z,46.05
2019-01-16T00:25:10.141Z,46.09
2019-01-16T00:27:54.910Z,45.94
2019-01-16T00:30:25.726Z,46.08
2019-01-16T00:33:05.458Z,45.86
2019-01-16T00:35:51.366Z,45.94
2019-01-16T00:38:34.228Z,45.93
2019-01-16T00:41:02.027Z,45.75
2019-01-16T00:43:32.515Z,45.42
2019-01-16T00:46:03.299Z,45.08
2019-01-16T00:48:40.266Z,45.39
2019-01-16T00:51:24.974Z,45.01
2019-01-16T00:53:55.489Z,45.35
2019-01-16T00:56:23.280Z,45.43
2019-01-16T00:59:00.461Z,45.95
2019-01-16T01:01:28.367Z,45.98
2019-01-16T01:04:01.919Z,46.35
2019-01-16T01:06:32.484Z,46.24
2019-01-16T01:09:03.012Z,46.69
2019-01-16T01:11:39.686Z,46.92
2019-01-16T01:14:14.102Z,46.85
2019-01-16T01:16:41.902Z,47.01
2019-01-16T01:19:24.995Z,46.79
2019-01-16T01:22:07.817Z,46.73
2019-01-16T01:24:41.375Z,46.76
2019-01-16T01:27:15.134Z,46.76
2019-01-16T01:29:42.889Z,46.66
2019-01-16T01:32:10.682Z,47.17
2019-01-16T01:34:55.339Z,47.71
2019-01-16T01:37:40.051Z,48.42
2019-01-16T01:40:24.857Z,48.52
2019-01-16T01:43:10.715Z,48.41
2019-01-16T01:45:44.367Z,48.20
2019-01-16T01:48:17.912Z,48.09
2019-01-16T01:50:51.532Z,47.85
2019-01-16T01:53:31.363Z,47.25
2019-01-16T01:56:05.003Z,47.63
2019-01-16T01:58:32.769Z,47.48
2019-01-16T02:01:06.304Z,47.52
2019-01-16T02:03:51.038Z,47.77
2019-01-16T02:06:24.771Z,47.64
2019-01-16T02:09:07.615Z,47.73
2019-01-16T02:11:35.458Z,48.03
2019-01-16T02:14:06.237Z,48.40
2019-01-16T02:16:52.639Z,48.34
2019-01-16T02:19:37.332Z,48.77
2019-01-16T02:22:17.215Z,49.04
2019-01-16T02:24:53.930Z,49.04
2019-01-16T02:27:21.722Z,49.13
2019-01-16T02:29:49.527Z,49.13
2019-01-16T02:32:17.310Z,49.38
2019-01-16T02:34:45.189Z,49.31
2019-01-16T02:37:15.936Z,49.23
2019-01-16T02:39:52.533Z,49.07
2019-01-16T02:42:23.024Z,48.46
2019-01-16T02:44:53.538Z,47.89
2019-01-16T02:47:21.318Z,47.58
2019-01-16T02:49:55.097Z,47.81
2019-01-16T02:52:39.762Z,48.16
2019-01-16T02:55:13.313Z,47.77
2019-01-16T02:57:53.245Z,47.67
2019-01-16T03:00:36.150Z,48.30
2019-01-16T03:03:12.914Z,48.51
2019-01-16T03:05:49.938Z,48.23
2019-01-16T03:08:27.061Z,48.71
2019-01-16T03:11:11.499Z,49.34
2019-01-16T03:13:54.618Z,49.75
2019-01-16T03:16:28.356Z,49.68
2019-01-16T03:19:05.952Z,50.20
2019-01-16T03:21:46.000Z,50.26
2019-01-16T03:24:13.796Z,50.61
2019-01-16T03:26:41.553Z,50.52
2019-01-16T03:29:12.278Z,50.68
2019-01-16T03:31:46.161Z,50.25
2019-01-16T03:34:30.561Z,50.02
2019-01-16T03:36:58.686Z,50.11
2019-01-16T03:39:44.799Z,49.80
2019-01-16T03:42:12.595Z,49.79
2019-01-16T03:44:43.373Z,49.85
2019-01-16T03:47:11.161Z,50.07
2019-01-16T03:49:41.670Z,50.32
2019-01-16T03:52:27.847Z,50.82
2019-01-16T03:55:04.629Z,51.37
2019-01-16T03:57:32.440Z,51.57
2019-01-16T04:00:06.282Z,52.01
2019-01-16T04:02:34.084Z,52.43
2019-01-16T04:05:18.578Z,52.05
2019-01-16T04:07:49.123Z,51.90
2019-01-16T04:10:22.906Z,52.84
2019-01-16T04:12:53.391Z,53.06
2019-01-16T04:15:33.195Z,53.69
2019-01-16T04:18:16.077Z,52.55
2019-01-16T04:20:44.569Z,52.20
2019-01-16T04:23:21.308Z,51.92
2019-01-16T04:26:05.878Z,52.82
2019-01-16T04:28:39.774Z,52.82
2019-01-16T04:31:16.813Z,52.50
2019-01-16T04:33:50.855Z,52.12
2019-01-16T04:36:36.599Z,52.55
2019-01-16T04:39:23.532Z,53.04
2019-01-16T04:41:54.062Z,53.65
2019-01-16T04:44:38.637Z,53.60
2019-01-16T04:47:15.226Z,53.64
2019-01-16T04:49:42.971Z,53.80
2019-01-16T04:52:25.832Z,53.59
2019-01-16T04:54:59.644Z,53.13
2019-01-16T04:57:27.458Z,52.52
2019-01-16T05:00:04.494Z,52.88
2019-01-16T05:02:32.358Z,52.08
2019-01-16T05:05:03.302Z,52.25
2019-01-16T05:07:37.230Z,52.83
2019-01-16T05:10:20.341Z,52.86
2019-01-16T05:12:57.098Z,52.76
2019-01-16T05:15:28.063Z,52.56
2019-01-16T05:18:02.048Z,52.64
2019-01-16T05:20:46.479Z,52.54
2019-01-16T05:23:15.054Z,52.91
2019-01-16T05:25:48.880Z,53.28
2019-01-16T05:28:28.633Z,53.28
2019-01-16T05:31:02.256Z,53.92
2019-01-16T05:33:30.026Z,54.18
2019-01-16T05:36:06.845Z,54.72
2019-01-16T05:38:46.897Z,54.27
2019-01-16T05:41:14.787Z,54.53
2019-01-16T05:43:59.353Z,54.45
2019-01-16T05:46:30.140Z,54.22
2019-01-16T05:49:14.902Z,53.99
2019-01-16T05:51:45.647Z,54.38
2019-01-16T05:54:13.433Z,54.38
2019-01-16T05:56:53.509Z,54.14
2019-01-16T05:59:21.308Z,53.73
2019-01-16T06:01:57.967Z,54.49
2019-01-16T06:04:28.967Z,54.92
2019-01-16T06:07:11.814Z,54.99
2019-01-16T06:09:39.608Z,54.20
2019-01-16T06:12:16.618Z,54.43
2019-01-16T06:14:47.486Z,54.95
2019-01-16T06:17:30.323Z,55.17
2019-01-16T06:20:01.374Z,55.05
2019-01-16T06:22:46.112Z,54.91
2019-01-16T06:25:20.294Z,54.69
2019-01-16T06:28:05.001Z,55.43
2019-01-16T06:30:38.880Z,56.18
2019-01-16T06:33:24.722Z,55.48
2019-01-16T06:35:58.515Z,55.68
2019-01-16T06:38:44.804Z,55.89
2019-01-16T06:41:18.317Z,55.76
2019-01-16T06:44:04.444Z,54.68
2019-01-16T06:46:38.307Z,54.75
2019-01-16T06:49:09.059Z,53.98
2019-01-16T06:51:42.601Z,55.15
2019-01-16T06:54:13.363Z,55.54
2019-01-16T06:56:44.039Z,54.59
2019-01-16T06:59:14.540Z,54.12
2019-01-16T07:01:54.209Z,54.10
2019-01-16T07:04:25.480Z,54.09
2019-01-16T07:07:09.894Z,53.87
2019-01-16T07:09:38.092Z,54.55
2019-01-16T07:12:05.904Z,54.47
2019-01-16T07:14:33.684Z,54.52
2019-01-16T07:17:10.539Z,54.46
2019-01-16T07:19:41.039Z,54.96
2019-01-16T07:22:25.321Z,54.09
2019-01-16T07:24:58.886Z,54.38
2019-01-16T07:27:44.344Z,53.91
2019-01-16T07:30:22.503Z,53.77
2019-01-16T07:32:59.647Z,53.39
2019-01-16T07:35:39.499Z,52.68
2019-01-16T07:38:07.293Z,52.34
2019-01-16T07:40:38.031Z,51.80
2019-01-16T07:43:11.666Z,51.48
2019-01-16T07:45:42.162Z,50.68
2019-01-16T07:48:12.697Z,51.02
2019-01-16T07:50:49.273Z,50.52
2019-01-16T07:53:17.065Z,50.51
2019-01-16T07:55:44.875Z,50.23
2019-01-16T07:58:27.894Z,50.49
2019-01-16T08:01:04.669Z,50.39
2019-01-16T08:03:49.312Z,50.12
2019-01-16T08:06:30.034Z,50.20
2019-01-16T08:09:15.935Z,50.10
2019-01-16T08:11:58.810Z,49.85
2019-01-16T08:14:26.622Z,49.77
2019-01-16T08:16:54.419Z,49.77
2019-01-16T08:19:37.430Z,49.36
2019-01-16T08:22:05.237Z,49.35
2019-01-16T08:24:49.566Z,49.39
2019-01-16T08:27:23.315Z,49.19
2019-01-16T08:29:51.608Z,48.75
2019-01-16T08:32:19.421Z,48.82
2019-01-16T08:34:56.477Z,48.82
2019-01-16T08:37:40.836Z,48.72
2019-01-16T08:40:10.306Z,48.72
2019-01-16T08:42:54.579Z,48.73
2019-01-16T08:45:39.187Z,48.67
2019-01-16T08:48:22.027Z,48.70
2019-01-16T08:50:55.859Z,48.70
2019-01-16T08:53:29.480Z,48.78
2019-01-16T08:56:00.460Z,48.34
2019-01-16T08:58:40.339Z,48.00
2019-01-16T09:01:32.387Z,47.96
2019-01-16T09:03:57.257Z,47.77
2019-01-16T09:06:25.140Z,47.58
2019-01-16T09:08:55.906Z,47.24
2019-01-16T09:11:38.722Z,47.02
2019-01-16T09:14:12.794Z,46.92
2019-01-16T09:16:46.105Z,46.74
2019-01-16T09:19:25.885Z,45.95
2019-01-16T09:21:53.686Z,45.95
2019-01-16T09:24:39.744Z,46.35
2019-01-16T09:27:10.493Z,46.35
2019-01-16T09:29:41.379Z,46.01
2019-01-16T09:32:09.436Z,45.63
2019-01-16T09:34:40.158Z,45.65
2019-01-16T09:37:07.948Z,45.38
2019-01-16T09:39:50.834Z,45.35
2019-01-16T09:42:18.629Z,45.13
2019-01-16T09:44:49.427Z,45.08
2019-01-16T09:47:29.169Z,45.21
2019-01-16T09:49:57.043Z,45.10
2019-01-16T09:52:40.204Z,44.82
2019-01-16T09:55:19.985Z,44.87
2019-01-16T09:57:50.535Z,44.53
2019-01-16T10:00:18.392Z,44.07
2019-01-16T10:02:46.186Z,43.91
2019-01-16T10:05:20.236Z,43.77
2019-01-16T10:07:48.105Z,43.42
2019-01-16T10:10:18.866Z,43.48
2019-01-16T10:12:50.013Z,44.42
2019-01-16T10:15:34.291Z,43.64
2019-01-16T10:18:11.005Z,44.23
2019-01-16T10:20:45.857Z,43.74
2019-01-16T10:23:14.617Z,43.68
2019-01-16T10:25:57.406Z,43.59
2019-01-16T10:28:28.377Z,43.57
2019-01-16T10:31:12.812Z,42.88
2019-01-16T10:33:41.244Z,42.95
2019-01-16T10:36:09.037Z,44.12
2019-01-16T10:38:39.648Z,43.80
2019-01-16T10:41:23.900Z,44.10
2019-01-16T10:43:51.709Z,44.18
2019-01-16T10:46:19.482Z,44.47
2019-01-16T10:48:50.276Z,44.29
2019-01-16T10:51:34.917Z,44.59
2019-01-16T10:54:14.572Z,44.40
2019-01-16T10:56:51.182Z,44.66
2019-01-16T10:59:18.956Z,44.41
2019-01-16T11:01:49.517Z,44.56
2019-01-16T11:04:29.138Z,44.75
2019-01-16T11:06:59.877Z,44.70
2019-01-16T11:09:30.682Z,44.57
2019-01-16T11:12:14.972Z,44.77
2019-01-16T11:14:55.141Z,44.66
2019-01-16T11:17:38.032Z,44.66
2019-01-16T11:20:15.762Z,44.88
2019-01-16T11:23:00.153Z,44.95
2019-01-16T11:25:43.349Z,44.87
2019-01-16T11:28:11.148Z,45.12
2019-01-16T11:30:38.929Z,44.63
2019-01-16T11:33:06.743Z,44.92
2019-01-16T11:35:47.846Z,44.55
2019-01-16T11:38:18.354Z,44.21
2019-01-16T11:40:46.117Z,44.31
2019-01-16T11:43:14.008Z,44.27
2019-01-16T11:45:47.990Z,44.13
2019-01-16T11:48:21.551Z,44.55
2019-01-16T11:50:51.884Z,44.36
2019-01-16T11:53:19.627Z,44.88
2019-01-16T11:55:59.497Z,44.70
2019-01-16T11:58:30.280Z,44.47
2019-01-16T12:01:00.813Z,44.80
2019-01-16T12:03:45.281Z,44.45
2019-01-16T12:06:13.180Z,44.37
2019-01-16T12:08:43.608Z,44.18
2019-01-16T12:11:14.369Z,44.25
2019-01-16T12:13:59.087Z,43.95
2019-01-16T12:16:33.122Z,43.34
2019-01-16T12:19:03.608Z,43.60
2019-01-16T12:21:48.156Z,44.39
2019-01-16T12:24:32.622Z,44.74
2019-01-16T12:27:00.397Z,45.05
2019-01-16T12:29:43.489Z,45.47
2019-01-16T12:32:11.275Z,45.77
2019-01-16T12:34:51.370Z,46.04
2019-01-16T12:37:25.421Z,45.73
2019-01-16T12:39:59.503Z,45.83
2019-01-16T12:42:36.232Z,44.69
2019-01-16T12:45:05.846Z,44.66
2019-01-16T12:47:33.651Z,45.41
2019-01-16T12:50:18.573Z,45.72
2019-01-16T12:53:01.562Z,44.84
2019-01-16T12:55:35.425Z,46.66
2019-01-16T12:58:13.340Z,46.42
2019-01-16T13:00:51.280Z,45.91
2019-01-16T13:03:21.977Z,45.57
2019-01-16T13:05:58.734Z,45.25
2019-01-16T13:08:26.500Z,46.14
2019-01-16T13:10:54.289Z,46.25
2019-01-16T13:13:40.466Z,46.34
2019-01-16T13:16:17.073Z,46.59
2019-01-16T13:18:57.089Z,46.47
2019-01-16T13:21:27.589Z,46.21
2019-01-16T13:24:04.646Z,46.88
2019-01-16T13:26:49.385Z,46.48
2019-01-16T13:29:26.746Z,44.14
2019-01-16T13:32:11.168Z,43.02
2019-01-16T13:34:55.785Z,42.62
2019-01-16T13:37:26.633Z,44.19
2019-01-16T13:39:55.236Z,44.98
2019-01-16T13:42:29.280Z,43.57
2019-01-16T13:45:06.349Z,43.76
2019-01-16T13:47:40.328Z,44.17
2019-01-16T13:50:28.334Z,44.54
2019-01-16T13:52:59.919Z,43.52
2019-01-16T13:55:30.821Z,44.19
2019-01-16T13:58:01.575Z,42.84
2019-01-16T14:00:35.386Z,44.52
2019-01-16T14:03:05.917Z,44.68
2019-01-16T14:05:46.004Z,45.63
2019-01-16T14:08:16.528Z,45.71
2019-01-16T14:10:47.050Z,45.81
2019-01-16T14:13:20.835Z,45.70
2019-01-16T14:15:54.428Z,45.70
2019-01-16T14:18:31.097Z,45.86
2019-01-16T14:20:59.059Z,45.90
2019-01-16T14:23:26.871Z,45.32
2019-01-16T14:25:54.628Z,45.30
2019-01-16T14:28:25.258Z,45.15
2019-01-16T14:30:55.847Z,45.18
2019-01-16T14:33:32.860Z,45.33
2019-01-16T14:36:17.330Z,45.40
2019-01-16T14:38:54.135Z,45.10
2019-01-16T14:41:38.005Z,45.04
2019-01-16T14:44:14.871Z,44.74
2019-01-16T14:46:48.900Z,44.72
2019-01-16T14:49:16.715Z,44.60
2019-01-16T14:51:44.612Z,44.81
2019-01-16T14:54:12.371Z,44.98
2019-01-16T14:56:42.899Z,45.07
2019-01-16T14:59:13.424Z,45.00
2019-01-16T15:01:51.961Z,44.94
2019-01-16T15:04:37.811Z,45.56
2019-01-16T15:07:15.307Z,45.95
2019-01-16T15:09:49.181Z,45.88
2019-01-16T15:12:22.997Z,45.87
2019-01-16T15:14:50.808Z,45.97
2019-01-16T15:17:30.558Z,46.17
2019-01-16T15:20:04.151Z,46.30
2019-01-16T15:22:34.664Z,46.52
2019-01-16T15:25:05.012Z,47.00
2019-01-16T15:27:42.022Z,47.11
2019-01-16T15:30:13.509Z,47.34
2019-01-16T15:32:41.288Z,47.49
2019-01-16T15:35:19.215Z,47.82
2019-01-16T15:37:47.003Z,47.86
2019-01-16T15:40:24.032Z,48.06
2019-01-16T15:43:07.500Z,48.07
2019-01-16T15:45:44.442Z,48.26
2019-01-16T15:48:21.132Z,48.56
2019-01-16T15:51:05.778Z,48.47
2019-01-16T15:53:33.571Z,48.42
2019-01-16T15:56:19.534Z,48.69
2019-01-16T15:58:50.254Z,48.73
2019-01-16T16:01:18.265Z,49.04
2019-01-16T16:03:46.040Z,49.06
2019-01-16T16:06:16.850Z,49.79
2019-01-16T16:08:56.962Z,50.21
2019-01-16T16:11:41.478Z,50.52
2019-01-16T16:14:18.149Z,50.74
2019-01-16T16:16:48.678Z,51.14
2019-01-16T16:19:28.829Z,51.11
2019-01-16T16:21:56.611Z,50.74
2019-01-16T16:24:24.378Z,50.68
2019-01-16T16:27:08.777Z,51.13
2019-01-16T16:29:39.634Z,51.45
2019-01-16T16:32:07.418Z,51.91
2019-01-16T16:34:35.246Z,51.52
2019-01-16T16:37:03.091Z,51.26
2019-01-16T16:39:30.844Z,51.89
2019-01-16T16:42:15.312Z,51.39
2019-01-16T16:44:44.276Z,51.86
2019-01-16T16:47:18.113Z,51.64
2019-01-16T16:49:48.861Z,52.44
2019-01-16T16:52:16.654Z,53.37
2019-01-16T16:54:56.498Z,53.70
2019-01-16T16:57:40.920Z,53.46
2019-01-16T17:00:15.009Z,53.71
2019-01-16T17:02:51.613Z,53.33
2019-01-16T17:05:19.493Z,53.06
2019-01-16T17:07:47.258Z,53.60
2019-01-16T17:10:15.045Z,53.76
2019-01-16T17:12:59.473Z,54.26
2019-01-16T17:15:33.338Z,54.51
2019-01-16T17:18:16.911Z,54.60
2019-01-16T17:20:44.740Z,55.09
2019-01-16T17:23:21.573Z,55.47
2019-01-16T17:25:52.542Z,55.61
2019-01-16T17:28:38.232Z,55.74
2019-01-16T17:31:06.052Z,55.74
2019-01-16T17:33:33.835Z,56.12
2019-01-16T17:36:01.587Z,56.18
2019-01-16T17:38:29.458Z,56.29
2019-01-16T17:41:11.999Z,56.68
2019-01-16T17:43:56.453Z,56.63
2019-01-16T17:46:28.269Z,56.77
2019-01-16T17:49:01.947Z,57.41
2019-01-16T17:51:29.740Z,56.66
2019-01-16T17:54:14.624Z,56.70
2019-01-16T17:56:45.402Z,57.03
2019-01-16T17:59:29.713Z,56.64
2019-01-16T18:02:00.247Z,56.96
2019-01-16T18:04:28.047Z,57.00
2019-01-16T18:06:58.353Z,56.94
2019-01-16T18:09:32.248Z,57.10
2019-01-16T18:12:12.026Z,57.19
2019-01-16T18:14:39.804Z,56.84
2019-01-16T18:17:13.804Z,56.93
2019-01-16T18:19:44.688Z,57.25
2019-01-16T18:22:12.519Z,57.28
2019-01-16T18:24:53.238Z,57.12
2019-01-16T18:27:35.813Z,56.93
2019-01-16T18:30:12.606Z,57.16
2019-01-16T18:32:40.504Z,56.96
2019-01-16T18:35:16.135Z,56.97
2019-01-16T18:37:46.767Z,56.91
2019-01-16T18:40:29.772Z,57.53
2019-01-16T18:43:14.382Z,57.17
2019-01-16T18:45:48.398Z,57.39
2019-01-16T18:48:17.083Z,57.36
2019-01-16T18:50:47.708Z,57.59
2019-01-16T18:53:15.499Z,57.38
2019-01-16T18:55:49.302Z,57.65
2019-01-16T18:58:19.958Z,57.28
2019-01-16T19:00:50.470Z,56.92
2019-01-16T19:03:24.091Z,57.39
2019-01-16T19:06:00.776Z,57.50
2019-01-16T19:08:45.356Z,57.91
2019-01-16T19:11:28.152Z,57.79
2019-01-16T19:14:14.169Z,58.08
2019-01-16T19:16:41.959Z,57.93
2019-01-16T19:19:24.866Z,57.75
2019-01-16T19:21:58.420Z,57.79
2019-01-16T19:24:33.735Z,58.56
2019-01-16T19:27:01.566Z,58.90
2019-01-16T19:29:38.361Z,59.01
2019-01-16T19:32:08.975Z,58.94
2019-01-16T19:34:39.784Z,59.46
2019-01-16T19:37:13.357Z,59.45
2019-01-16T19:39:58.213Z,59.61
2019-01-16T19:42:26.012Z,59.42
2019-01-16T19:45:08.805Z,59.64
2019-01-16T19:47:53.530Z,59.82
2019-01-16T19:50:24.810Z,59.69
2019-01-16T19:53:09.308Z,59.41
2019-01-16T19:55:53.923Z,59.81
2019-01-16T19:58:21.971Z,59.04
2019-01-16T20:00:55.682Z,60.06
2019-01-16T20:03:32.507Z,59.65
2019-01-16T20:06:00.417Z,58.27
2019-01-16T20:08:46.210Z,56.63
2019-01-16T20:11:22.895Z,57.15
2019-01-16T20:13:51.009Z,56.81
2019-01-16T20:16:24.203Z,55.92
2019-01-16T20:19:01.223Z,56.65
2019-01-16T20:21:29.156Z,56.40
2019-01-16T20:23:56.936Z,56.03
2019-01-16T20:26:41.552Z,55.81
2019-01-16T20:29:12.287Z,55.52
2019-01-16T20:31:45.838Z,55.69
2019-01-16T20:34:16.615Z,55.00
2019-01-16T20:36:44.445Z,55.26
2019-01-16T20:39:28.285Z,55.61
2019-01-16T20:41:56.136Z,55.71
2019-01-16T20:44:40.772Z,55.28
2019-01-16T20:47:13.466Z,55.82
2019-01-16T20:49:53.596Z,55.79
2019-01-16T20:52:28.246Z,56.40
2019-01-16T20:55:14.225Z,56.79
2019-01-16T20:57:59.488Z,56.61
2019-01-16T21:00:29.786Z,55.63
2019-01-16T21:02:57.589Z,62.73
2019-01-16T21:05:25.389Z,48.19
2019-01-16T21:07:53.186Z,55.76
2019-01-16T21:10:20.970Z,57.51
2019-01-16T21:13:04.167Z,57.91
2019-01-16T21:15:39.598Z,57.83
2019-01-16T21:18:07.368Z,57.38
2019-01-16T21:20:41.222Z,58.08
2019-01-16T21:23:24.023Z,57.35
2019-01-16T21:25:57.659Z,57.25
2019-01-16T21:28:32.622Z,56.99
2019-01-16T21:31:06.236Z,56.81
2019-01-16T21:33:37.068Z,56.68
2019-01-16T21:36:13.925Z,56.77
2019-01-16T21:38:58.370Z,57.01
2019-01-16T21:41:32.122Z,57.12
2019-01-16T21:44:02.451Z,57.59
2019-01-16T21:46:30.246Z,57.88
2019-01-16T21:49:01.064Z,58.15
2019-01-16T21:51:40.737Z,58.58
2019-01-16T21:54:09.310Z,58.84
2019-01-16T21:56:37.099Z,60.93
2019-01-16T21:59:10.678Z,61.69
2019-01-16T22:01:41.432Z,62.15
2019-01-16T22:04:09.231Z,62.49
2019-01-16T22:06:37.202Z,62.49
2019-01-16T22:09:16.134Z,62.48
2019-01-16T22:11:50.195Z,62.72
2019-01-16T22:14:30.107Z,62.98
2019-01-16T22:16:57.878Z,62.93
2019-01-16T22:19:28.713Z,62.64
2019-01-16T22:22:11.542Z,62.25
2019-01-16T22:24:54.395Z,61.74
2019-01-16T22:27:24.958Z,61.33
2019-01-16T22:29:55.752Z,60.71
2019-01-16T22:32:26.123Z,60.48
2019-01-16T22:34:53.902Z,60.47
2019-01-16T22:38:51.116Z,60.79
2019-01-16T22:41:35.516Z,61.26
2019-01-16T22:44:03.295Z,60.79
2019-01-16T22:46:31.057Z,61.07
2019-01-16T22:49:07.814Z,61.26
2019-01-16T22:51:41.400Z,62.00
2019-01-16T22:54:09.270Z,61.73
2019-01-16T22:56:46.661Z,61.98
2019-01-16T22:59:20.784Z,61.99
2019-01-16T23:02:06.721Z,62.34
2019-01-16T23:04:43.423Z,62.18
2019-01-16T23:07:13.973Z,62.21
2019-01-16T23:09:41.840Z,62.15
2019-01-16T23:12:26.143Z,62.44
2019-01-16T23:14:53.919Z,63.00
2019-01-16T23:17:21.690Z,61.66
2019-01-16T23:19:49.505Z,61.52
2019-01-16T23:22:32.606Z,61.68
2019-01-16T23:25:03.220Z,61.96
2019-01-16T23:27:47.523Z,61.70
2019-01-16T23:30:28.241Z,61.02
2019-01-16T23:33:11.070Z,60.80
2019-01-16T23:35:53.971Z,61.95
2019-01-16T23:38:31.160Z,62.57
2019-01-16T23:41:07.818Z,62.54
2019-01-16T23:43:52.460Z,63.21
2019-01-16T23:46:32.610Z,63.71
2019-01-16T23:49:17.409Z,63.65
2019-01-16T23:51:45.184Z,63.35
2019-01-16T23:54:29.680Z,63.99
2019-01-16T23:56:58.323Z,63.97
2019-01-16T23:59:35.019Z,62.23
